Country
Station

 

Weather  for  Ornskoldsvik Airport  -  Sweden    Sweden

  
10 °C (50 °F)
    
 
 

Current METAR for Ornskoldsvik Airport is :

ESNO 180950Z AUTO 01005G16KT 320V050 9999 OVC120/// 10/M00 Q1009

 

This is a report for Ornskoldsvik Airport - Sweden.
 
The report was made 24 minutes ago, at 09:50 UTC .
The wind was blowing at a speed of 2.6 meters per second (5.8 miles per hour) with gusts up to 8.2 meters per second (18.4 miles per hour) from north (010°), varying between northwest (320°) and northeast (050°).
 
The temperature was 10 °C (50 °F)
The atmospheric pressure was 1009 hPa (29.80 inHg).
The overall visibility was greater than 10 kilometers (6.2 miles).
 

 
 
 
 

Country :   A   B   C   D   E   F   G   H   I   J   K   L   M   N   O   P   Q   R   S   T   U   V   W   Y   Z

 

Site Info  |  Disclaimer  |  Credits  |  Privacy
Contact us  |  Add to favorites
© 2013-2019 METARs - All rights reserved